»·PEaware :: SCX8933 KBOI-KMSO

SCX8933 :: KBOI-KMSO

FLIGHT INFORMATION

Flight Status: Arrived
Operator:
Sun Country Airlines
More flights by this operator :: More flights under this callsign
Pilot: Brad B. (8715)
Aircraft: BOEING 737-800
(B738)
More flights by this aircraft type
Origin: KBOI Boise Air Terminal/Gowen
United States
Destination: KMSO Missoula Intl
United States
More flights between these airports :: More routes between these airports
Route: BOI3 LKT V231 MSO
File this flight plan on PilotEdge
Remarks:
Altitude:
(Current/Filed)
31,000ft
Speed:
(Current/Filed)
453kts
Departed: 13-Jun-18 08:07 AM
Arrived: 13-Jun-18 08:52 AM
Distance/Time
Traveled:
221nm/0:45
Distance/Time
To Go:
Arrived

Flight Plot

Page will automatically refresh every two minutes.

Flight plan parsing failed; only flown route is shown


Map Options




Map Legend


Flown Route
Filed Route
Departure Airport
Arrival Airport
Navaid (VOR, NDB)
Fix

Horizontal Profiles

Position Reports

Time Latitude Longitude Heading Altitude Ground
Speed
13-Jun-18 07:21 43.567256 -116.220654 24 2879ft 0kts
13-Jun-18 07:22 43.567256 -116.220654 24 2879ft 0kts
13-Jun-18 07:23 43.567256 -116.220654 24 2879ft 0kts
13-Jun-18 07:24 43.567256 -116.220654 24 2879ft 0kts
13-Jun-18 07:25 43.567256 -116.220654 24 2879ft 0kts
13-Jun-18 07:26 43.567256 -116.220654 24 2879ft 0kts
13-Jun-18 07:27 43.567256 -116.220654 24 2879ft 0kts
13-Jun-18 07:28 43.567256 -116.220654 24 2879ft 0kts
13-Jun-18 07:29 43.567256 -116.220654 24 2879ft 0kts
13-Jun-18 07:30 43.567256 -116.220654 24 2879ft 0kts
13-Jun-18 07:31 43.567256 -116.220654 24 2879ft 0kts
13-Jun-18 07:32 43.567256 -116.220654 24 2879ft 0kts
13-Jun-18 07:33 43.567256 -116.220654 24 2879ft 0kts
13-Jun-18 07:34 43.567256 -116.220654 24 2879ft 0kts
13-Jun-18 07:35 43.567256 -116.220654 24 2879ft 0kts
13-Jun-18 07:36 43.567256 -116.220654 24 2879ft 0kts
13-Jun-18 07:37 43.567256 -116.220654 24 2879ft 0kts
13-Jun-18 07:38 43.567256 -116.220654 24 2879ft 0kts
13-Jun-18 07:39 43.567256 -116.220654 24 2879ft 0kts
13-Jun-18 07:40 43.567256 -116.220654 24 2879ft 0kts
13-Jun-18 07:41 43.567256 -116.220654 24 2879ft 0kts
13-Jun-18 07:42 43.567256 -116.220654 24 2879ft 0kts
13-Jun-18 07:43 43.567256 -116.220654 24 2879ft 0kts
13-Jun-18 07:44 43.567256 -116.220654 24 2879ft 0kts
13-Jun-18 07:52 43.567256 -116.220654 24 2879ft 0kts
13-Jun-18 07:53 43.567256 -116.220654 24 2879ft 0kts
13-Jun-18 07:54 43.567256 -116.220654 24 2879ft 0kts
13-Jun-18 07:55 43.567256 -116.220654 24 2879ft 0kts
13-Jun-18 07:56 43.567256 -116.220654 24 2879ft 0kts
13-Jun-18 07:57 43.567256 -116.220654 24 2879ft 0kts
13-Jun-18 07:58 43.567256 -116.220654 24 2879ft 0kts
13-Jun-18 07:59 43.567256 -116.220654 24 2879ft 0kts
13-Jun-18 08:00 43.567256 -116.220654 24 2879ft 0kts
13-Jun-18 08:01 43.566806 -116.220777 334 2879ft 2kts
13-Jun-18 08:02 43.566634 -116.220536 294 2879ft 0kts
13-Jun-18 08:03 43.566636 -116.220540 294 2879ft 0kts
13-Jun-18 08:04 43.566543 -116.221797 234 2879ft 14kts
13-Jun-18 08:05 43.569447 -116.230992 294 2879ft 31kts
13-Jun-18 08:06 43.570135 -116.236348 140 2879ft 13kts
13-Jun-18 08:07 43.557557 -116.199633 113 3588ft 172kts
13-Jun-18 08:08 43.535648 -116.128271 112 5980ft 237kts
13-Jun-18 08:09 43.506935 -116.033620 112 8956ft 280kts
13-Jun-18 08:10 43.475429 -115.928103 115 11451ft 335kts
13-Jun-18 08:11 43.452984 -115.791937 78 13499ft 397kts
13-Jun-18 08:12 43.525188 -115.677319 34 16228ft 415kts
13-Jun-18 08:13 43.619948 -115.579372 33 18775ft 433kts
13-Jun-18 08:14 43.717690 -115.477729 33 21160ft 447kts
13-Jun-18 08:15 43.818902 -115.372655 33 23244ft 460kts
13-Jun-18 08:16 43.922349 -115.264641 33 25095ft 471kts
13-Jun-18 08:17 44.028035 -115.153570 33 26658ft 485kts
13-Jun-18 08:18 44.137042 -115.038476 32 28146ft 496kts
13-Jun-18 08:19 44.246865 -114.921934 32 29963ft 495kts
13-Jun-18 08:20 44.355737 -114.805838 32 31128ft 494kts
13-Jun-18 08:21 44.473191 -114.716192 8 31112ft 472kts
13-Jun-18 08:22 44.600950 -114.682078 3 31089ft 467kts
13-Jun-18 08:23 44.729085 -114.650776 3 31075ft 468kts
13-Jun-18 08:24 44.857578 -114.619190 2 31069ft 468kts
13-Jun-18 08:25 44.985829 -114.587713 2 31059ft 468kts
13-Jun-18 08:26 45.114505 -114.555927 2 31052ft 468kts
13-Jun-18 08:27 45.242822 -114.524046 2 31039ft 469kts
13-Jun-18 08:28 45.371105 -114.492012 2 30877ft 466kts
13-Jun-18 08:29 45.497277 -114.460363 2 28587ft 453kts
13-Jun-18 08:30 45.619940 -114.429453 2 26395ft 443kts
13-Jun-18 08:31 45.739792 -114.399118 2 24351ft 432kts
13-Jun-18 08:32 45.858132 -114.369031 2 22117ft 428kts
13-Jun-18 08:33 45.973957 -114.339458 2 20013ft 416kts
13-Jun-18 08:34 46.067406 -114.315500 2 18280ft 403kts
13-Jun-18 08:35 46.176230 -114.287600 3 16284ft 389kts
13-Jun-18 08:36 46.297164 -114.256295 3 15023ft 359kts
13-Jun-18 08:37 46.390130 -114.239907 344 15003ft 319kts
13-Jun-18 08:38 46.474553 -114.274253 335 14512ft 309kts
13-Jun-18 08:39 46.555000 -114.309218 335 13910ft 297kts
13-Jun-18 08:40 46.620921 -114.337856 335 13353ft 302kts
13-Jun-18 08:41 46.702785 -114.373681 336 12284ft 306kts
13-Jun-18 08:42 46.783230 -114.409033 336 12003ft 303kts
13-Jun-18 08:43 46.853601 -114.466230 319 11981ft 293kts
13-Jun-18 08:44 46.932898 -114.483662 345 11836ft 267kts
13-Jun-18 08:45 47.004327 -114.494271 0 10804ft 261kts
13-Jun-18 08:46 47.072589 -114.459803 28 9504ft 259kts
13-Jun-18 08:47 47.071473 -114.370636 125 8198ft 241kts
13-Jun-18 08:48 47.032035 -114.290854 130 6410ft 240kts
13-Jun-18 08:49 46.992111 -114.221853 131 5206ft 205kts
13-Jun-18 08:50 46.958298 -114.163857 130 4221ft 165kts
13-Jun-18 08:51 46.929811 -114.115059 130 3380ft 153kts
13-Jun-18 08:52 46.912888 -114.085374 50 3213ft 7kts
13-Jun-18 08:53 46.913786 -114.084526 338 3213ft 5kts
13-Jun-18 08:54 46.916500 -114.087180 40 3213ft 15kts
13-Jun-18 08:55 46.918367 -114.084885 73 3213ft 2kts
13-Jun-18 08:56 47.049071 -114.324009 126 7245ft 242kts
13-Jun-18 08:57 46.938208 -114.129445 130 3626ft 155kts
13-Jun-18 08:58 46.913994 -114.087986 130 3213ft 60kts
13-Jun-18 08:59 46.918369 -114.084876 73 3213ft 0kts
13-Jun-18 09:00 46.918369 -114.084876 73 3213ft 0kts
13-Jun-18 09:01 46.918369 -114.084876 73 3213ft 0kts
13-Jun-18 09:02 46.918369 -114.084876 73 3213ft 0kts
13-Jun-18 09:03 46.918369 -114.084876 73 3213ft 0kts
13-Jun-18 09:04 46.918369 -114.084876 73 3213ft 0kts
13-Jun-18 09:05 46.918369 -114.084876 73 3213ft 0kts
13-Jun-18 09:06 46.918369 -114.084876 73 3213ft 0kts
13-Jun-18 09:07 46.918369 -114.084876 73 3213ft 0kts

Navigation Log

Ident Type
Flight plan parsing failed, navigation log unavailable